createdAt,value
2022-11-05T00:00:10.202Z,243.99
2022-11-05T00:00:55.143Z,240.00
2022-11-05T00:01:40.542Z,225.99
2022-11-05T00:02:25.610Z,229.00
2022-11-05T00:03:10.537Z,240.99
2022-11-05T00:03:55.507Z,241.99
2022-11-05T00:04:40.431Z,257.98
2022-11-05T00:05:25.805Z,225.99
2022-11-05T00:06:10.747Z,234.99
2022-11-05T00:06:55.712Z,227.99
2022-11-05T00:07:41.384Z,217.00
2022-11-05T00:08:26.133Z,217.00
2022-11-05T00:09:10.675Z,206.99
2022-11-05T00:09:55.829Z,213.99
2022-11-05T00:10:41.136Z,206.99
2022-11-05T00:11:26.039Z,242.99
2022-11-05T00:12:11.097Z,251.99
2022-11-05T00:12:56.177Z,245.99
2022-11-05T00:13:41.205Z,239.00
2022-11-05T00:14:25.983Z,232.00
2022-11-05T00:15:11.118Z,243.99
2022-11-05T00:15:56.278Z,231.00
2022-11-05T00:16:41.538Z,230.00
2022-11-05T00:17:26.410Z,244.99
2022-11-05T00:18:11.475Z,238.00
2022-11-05T00:18:57.011Z,229.00
2022-11-05T00:19:41.528Z,230.00
2022-11-05T00:20:26.821Z,213.99
2022-11-05T00:21:11.831Z,208.99
2022-11-05T00:21:56.736Z,199.99
2022-11-05T00:22:41.987Z,227.99
2022-11-05T00:23:26.636Z,186.99
2022-11-05T00:24:12.142Z,201.99
2022-11-05T00:24:57.157Z,553.97
2022-11-05T00:25:42.114Z,216.99
2022-11-05T00:26:27.174Z,198.99
2022-11-05T00:27:12.430Z,226.99
2022-11-05T00:27:57.417Z,223.98
2022-11-05T00:28:42.338Z,219.99
2022-11-05T00:29:27.438Z,203.99
2022-11-05T00:30:12.655Z,201.99
2022-11-05T00:30:57.512Z,192.99
2022-11-05T00:31:42.509Z,187.99
2022-11-05T00:32:27.954Z,199.99
2022-11-05T00:33:13.011Z,201.99
2022-11-05T00:33:57.937Z,192.99
2022-11-05T00:34:42.548Z,182.99
2022-11-05T00:35:27.615Z,185.99
2022-11-05T00:36:13.019Z,186.99
2022-11-05T00:36:57.986Z,199.99
2022-11-05T00:37:48.760Z,237.99
2022-11-05T00:38:28.070Z,225.99
2022-11-05T00:39:13.552Z,211.99
2022-11-05T00:39:58.080Z,216.99
2022-11-05T00:40:43.139Z,216.99
2022-11-05T00:41:28.293Z,218.99
2022-11-05T00:42:13.250Z,209.99
2022-11-05T00:42:58.310Z,215.99
2022-11-05T00:43:43.668Z,218.99
2022-11-05T00:44:29.327Z,230.99
2022-11-05T00:45:13.589Z,243.99
2022-11-05T00:45:58.531Z,252.98
2022-11-05T00:46:43.691Z,270.98
2022-11-05T00:47:28.677Z,277.98
2022-11-05T00:48:13.698Z,252.98
2022-11-05T00:48:59.177Z,237.99
2022-11-05T00:49:43.921Z,261.99
2022-11-05T00:50:28.879Z,298.99
2022-11-05T00:51:14.243Z,257.98
2022-11-05T00:51:59.187Z,256.98
2022-11-05T00:52:44.144Z,252.99
2022-11-05T00:53:29.196Z,223.99
2022-11-05T00:54:14.192Z,231.99
2022-11-05T00:54:59.321Z,238.99
2022-11-05T00:55:44.161Z,209.99
2022-11-05T00:56:29.428Z,225.99
2022-11-05T00:57:14.480Z,228.99
2022-11-05T00:57:59.538Z,228.99
2022-11-05T00:58:44.340Z,202.99
2022-11-05T00:59:29.551Z,204.99
2022-11-05T01:00:14.509Z,244.99
2022-11-05T01:00:59.918Z,234.98
2022-11-05T01:01:44.908Z,219.99
2022-11-05T01:02:29.708Z,212.99
2022-11-05T01:03:15.103Z,204.99
2022-11-05T01:03:59.988Z,231.99
2022-11-05T01:04:44.836Z,211.98
2022-11-05T01:05:30.108Z,231.98
2022-11-05T01:06:14.997Z,214.98
2022-11-05T01:06:59.909Z,192.98
2022-11-05T01:07:45.373Z,209.98
2022-11-05T01:08:30.231Z,208.98
2022-11-05T01:09:15.388Z,244.98
2022-11-05T01:10:00.344Z,219.96
2022-11-05T01:10:45.294Z,211.98
2022-11-05T01:11:30.580Z,223.96
2022-11-05T01:12:15.612Z,212.98
2022-11-05T01:13:00.665Z,215.98
2022-11-05T01:13:45.622Z,222.98
2022-11-05T01:14:30.679Z,239.98
2022-11-05T01:15:15.842Z,227.98
2022-11-05T01:16:00.787Z,230.98
2022-11-05T01:16:45.953Z,222.97
2022-11-05T01:17:31.107Z,201.97
2022-11-05T01:18:16.064Z,206.97
2022-11-05T01:19:01.121Z,204.97
2022-11-05T01:19:46.006Z,216.97
2022-11-05T01:20:31.130Z,224.95
2022-11-05T01:21:16.284Z,212.97
2022-11-05T01:22:01.762Z,219.97
2022-11-05T01:22:46.399Z,227.97
2022-11-05T01:23:31.361Z,216.97
2022-11-05T01:24:16.323Z,194.97
2022-11-05T01:25:01.364Z,230.97
2022-11-05T01:25:46.427Z,226.97
2022-11-05T01:26:35.596Z,216.97
2022-11-05T01:27:16.225Z,196.97
2022-11-05T01:28:01.590Z,201.97
2022-11-05T01:28:46.515Z,201.97
2022-11-05T01:29:31.594Z,584.91
2022-11-05T01:30:16.466Z,278.96
2022-11-05T01:31:01.512Z,596.91
2022-11-05T01:31:46.872Z,585.91
2022-11-05T01:32:31.925Z,603.86
2022-11-05T01:33:16.372Z,593.91
2022-11-05T01:34:01.841Z,605.91
2022-11-05T01:34:47.302Z,611.91
2022-11-05T01:35:32.054Z,597.91
2022-11-05T01:36:17.212Z,597.91
2022-11-05T01:37:08.020Z,588.91
2022-11-05T01:37:47.156Z,588.91
2022-11-05T01:38:32.410Z,588.91
2022-11-05T01:39:17.230Z,612.91
2022-11-05T01:40:03.660Z,596.91
2022-11-05T01:40:47.339Z,595.91
2022-11-05T01:41:37.312Z,603.91
2022-11-05T01:42:18.887Z,589.91
2022-11-05T01:43:12.096Z,579.87
2022-11-05T01:43:48.421Z,587.91
2022-11-05T01:44:32.518Z,594.91
2022-11-05T01:45:18.934Z,609.91
2022-11-05T01:46:02.942Z,604.91
2022-11-05T01:46:50.765Z,596.91
2022-11-05T01:47:34.896Z,589.91
2022-11-05T01:48:18.421Z,585.91
2022-11-05T01:49:03.936Z,609.91
2022-11-05T01:49:48.073Z,599.91
2022-11-05T01:50:32.976Z,603.91
2022-11-05T01:51:18.237Z,593.91
2022-11-05T01:52:03.348Z,591.91
2022-11-05T01:52:48.261Z,591.91
2022-11-05T01:54:18.155Z,595.91
2022-11-05T01:55:03.312Z,608.91
2022-11-05T01:55:48.172Z,585.91
2022-11-05T01:56:34.426Z,591.91
2022-11-05T01:57:18.693Z,595.91
2022-11-05T01:58:03.643Z,593.91
2022-11-05T01:58:49.237Z,596.91
2022-11-05T01:59:33.579Z,609.91
2022-11-05T02:00:18.910Z,611.91
2022-11-05T02:01:03.835Z,605.91
2022-11-05T02:01:48.918Z,610.91
2022-11-05T02:02:34.966Z,352.95
2022-11-05T02:03:20.501Z,212.97
2022-11-05T02:04:04.096Z,202.97
2022-11-05T02:04:57.344Z,208.97
2022-11-05T02:05:33.997Z,218.97
2022-11-05T02:06:26.677Z,211.97
2022-11-05T02:07:06.981Z,214.97
2022-11-05T02:07:49.074Z,198.97
2022-11-05T02:08:33.859Z,194.97
2022-11-05T02:09:19.967Z,164.96
2022-11-05T02:10:04.440Z,216.97
2022-11-05T02:10:51.921Z,216.97
2022-11-05T02:11:34.792Z,196.94
2022-11-05T02:12:19.820Z,203.96
2022-11-05T02:13:04.802Z,214.96
2022-11-05T02:13:49.737Z,201.96
2022-11-05T02:14:34.781Z,201.96
2022-11-05T02:15:21.691Z,226.97
2022-11-05T02:16:07.525Z,232.97
2022-11-05T02:16:59.371Z,222.97
2022-11-05T02:17:35.256Z,262.94
2022-11-05T02:18:21.063Z,210.97
2022-11-05T02:19:05.946Z,211.97
2022-11-05T02:20:03.418Z,222.97
2022-11-05T02:20:35.456Z,222.97
2022-11-05T02:22:05.560Z,223.96
2022-11-05T02:22:50.401Z,229.95
2022-11-05T02:23:42.452Z,239.96
2022-11-05T02:25:03.800Z,221.97
2022-11-05T02:25:05.672Z,208.96
2022-11-05T02:25:51.952Z,207.96
2022-11-05T02:26:46.742Z,217.96
2022-11-05T02:27:21.766Z,210.96
2022-11-05T02:28:30.986Z,202.96
2022-11-05T02:29:00.375Z,193.96
2022-11-05T02:29:44.207Z,189.96
2022-11-05T02:30:21.079Z,216.95
2022-11-05T02:31:07.769Z,244.96
2022-11-05T02:31:50.970Z,240.96
2022-11-05T02:32:36.032Z,251.96
2022-11-05T02:33:21.397Z,255.98
2022-11-05T02:34:06.156Z,235.98
2022-11-05T02:34:51.202Z,246.99
2022-11-05T02:35:36.372Z,239.00
2022-11-05T02:36:21.321Z,234.99
2022-11-05T02:37:06.309Z,228.99
2022-11-05T02:37:51.320Z,225.99
2022-11-05T02:38:37.305Z,212.99
2022-11-05T02:39:21.695Z,215.99
2022-11-05T02:40:07.002Z,214.99
2022-11-05T02:40:51.967Z,208.99
2022-11-05T02:41:36.870Z,198.99
2022-11-05T02:42:21.649Z,215.99
2022-11-05T02:43:07.041Z,201.99
2022-11-05T02:43:52.289Z,196.99
2022-11-05T02:44:37.237Z,201.99
2022-11-05T02:45:21.996Z,211.99
2022-11-05T02:46:06.941Z,199.99
2022-11-05T02:46:51.978Z,190.99
2022-11-05T02:47:37.403Z,209.99
2022-11-05T02:48:22.222Z,204.99
2022-11-05T02:49:07.280Z,222.99
2022-11-05T02:49:52.127Z,198.99
2022-11-05T02:50:37.810Z,207.99
2022-11-05T02:51:22.455Z,189.99
2022-11-05T02:52:07.338Z,194.99
2022-11-05T02:52:52.350Z,191.99
2022-11-05T02:53:37.819Z,204.99
2022-11-05T02:54:22.461Z,199.99
2022-11-05T02:55:07.521Z,220.99
2022-11-05T02:55:52.477Z,228.99
2022-11-05T02:56:37.843Z,220.99
2022-11-05T02:57:22.896Z,212.98
2022-11-05T02:58:07.815Z,202.99
2022-11-05T02:58:52.799Z,215.99
2022-11-05T02:59:37.856Z,226.99
2022-11-05T03:00:23.497Z,230.99
2022-11-05T03:01:08.591Z,219.99
2022-11-05T03:01:53.143Z,212.99
2022-11-05T03:02:38.212Z,202.99
2022-11-05T03:03:22.942Z,221.99
2022-11-05T03:04:07.792Z,225.99
2022-11-05T03:04:52.946Z,218.99
2022-11-05T03:05:38.136Z,232.99
2022-11-05T03:06:23.582Z,222.99
2022-11-05T03:07:08.315Z,217.99
2022-11-05T03:07:53.063Z,246.99
2022-11-05T03:08:38.491Z,234.99
2022-11-05T03:09:23.485Z,242.99
2022-11-05T03:10:08.335Z,220.99
2022-11-05T03:10:53.597Z,238.99
2022-11-05T03:11:38.775Z,244.99
2022-11-05T03:12:23.694Z,226.00
2022-11-05T03:13:09.048Z,222.00
2022-11-05T03:13:53.926Z,221.00
2022-11-05T03:14:38.885Z,215.00
2022-11-05T03:15:24.147Z,198.00
2022-11-05T03:16:09.045Z,187.00
2022-11-05T03:16:54.151Z,207.99
2022-11-05T03:17:39.442Z,191.99
2022-11-05T03:18:24.191Z,194.99
2022-11-05T03:19:09.530Z,199.99
2022-11-05T03:19:54.180Z,215.98
2022-11-05T03:20:39.451Z,208.99
2022-11-05T03:21:24.289Z,175.99
2022-11-05T03:22:09.449Z,186.99
2022-11-05T03:22:54.304Z,185.99
2022-11-05T03:23:39.566Z,172.99
2022-11-05T03:24:24.413Z,171.99
2022-11-05T03:25:09.366Z,198.99
2022-11-05T03:25:54.727Z,179.99
2022-11-05T03:26:40.094Z,205.99
2022-11-05T03:27:24.853Z,178.99
2022-11-05T03:28:09.693Z,176.98
2022-11-05T03:28:54.945Z,192.96
2022-11-05T03:29:40.012Z,185.95
2022-11-05T03:30:24.966Z,197.90
2022-11-05T03:31:09.923Z,190.96
2022-11-05T03:31:55.186Z,184.97
2022-11-05T03:32:40.351Z,184.97
2022-11-05T03:33:25.022Z,215.96
2022-11-05T03:34:09.868Z,173.97
2022-11-05T03:34:54.891Z,564.90
2022-11-05T03:35:40.254Z,579.87
2022-11-05T03:36:25.520Z,588.80
2022-11-05T03:37:10.591Z,578.84
2022-11-05T03:37:55.219Z,197.94
2022-11-05T03:38:40.588Z,189.95
2022-11-05T03:39:25.697Z,220.94
2022-11-05T03:40:10.325Z,246.93
2022-11-05T03:40:55.653Z,227.95
2022-11-05T03:41:40.832Z,214.95
2022-11-05T03:42:25.614Z,233.96
2022-11-05T03:43:11.273Z,211.96
2022-11-05T03:43:55.916Z,240.96
2022-11-05T03:44:40.758Z,195.96
2022-11-05T03:45:25.711Z,221.95
2022-11-05T03:46:10.852Z,198.96
2022-11-05T03:46:55.955Z,212.96
2022-11-05T03:47:41.162Z,229.95
2022-11-05T03:48:26.163Z,222.95
2022-11-05T03:49:11.198Z,545.90
2022-11-05T03:49:55.922Z,545.90
2022-11-05T03:50:41.577Z,308.93
2022-11-05T03:51:26.575Z,242.93
2022-11-05T03:52:11.392Z,257.93
2022-11-05T03:52:56.867Z,257.93
2022-11-05T03:53:41.732Z,581.84
2022-11-05T03:54:26.469Z,581.84
2022-11-05T03:55:12.260Z,607.83
2022-11-05T03:55:56.846Z,583.84
2022-11-05T03:56:41.951Z,584.80
2022-11-05T03:57:26.791Z,585.80
2022-11-05T03:58:11.758Z,592.70
2022-11-05T03:58:59.119Z,580.71
2022-11-05T03:59:42.088Z,564.71
2022-11-05T04:00:27.144Z,391.80
2022-11-05T04:01:12.386Z,188.90
2022-11-05T04:01:57.419Z,241.88
2022-11-05T04:02:42.237Z,229.88
2022-11-05T04:03:27.454Z,590.64
2022-11-05T04:04:12.226Z,585.70
2022-11-05T04:04:57.281Z,604.69
2022-11-05T04:05:42.318Z,602.63
2022-11-05T04:06:27.172Z,548.72
2022-11-05T04:07:12.314Z,205.85
2022-11-05T04:07:57.399Z,196.90
2022-11-05T04:08:42.537Z,203.90
2022-11-05T04:09:27.712Z,201.90
2022-11-05T04:10:12.751Z,214.89
2022-11-05T04:10:57.600Z,191.90
2022-11-05T04:11:42.756Z,194.90
2022-11-05T04:12:27.736Z,189.90
2022-11-05T04:13:13.049Z,189.90
2022-11-05T04:13:58.070Z,199.90
2022-11-05T04:14:43.049Z,204.90
2022-11-05T04:15:27.866Z,204.90
2022-11-05T04:16:12.809Z,213.89
2022-11-05T04:16:58.055Z,212.89
2022-11-05T04:17:43.213Z,212.89
2022-11-05T04:18:28.173Z,212.89
2022-11-05T04:19:12.920Z,207.89
2022-11-05T04:19:58.498Z,218.89
2022-11-05T04:20:43.473Z,239.88
2022-11-05T04:21:28.293Z,218.89
2022-11-05T04:22:13.349Z,213.89
2022-11-05T04:22:58.470Z,212.89
2022-11-05T04:23:43.238Z,218.89
2022-11-05T04:24:28.654Z,221.89
2022-11-05T04:25:13.569Z,226.88
2022-11-05T04:25:58.744Z,201.90
2022-11-05T04:26:43.637Z,191.93
2022-11-05T04:27:28.848Z,184.94
2022-11-05T04:28:13.915Z,201.94
2022-11-05T04:29:01.395Z,182.94
2022-11-05T04:29:43.978Z,191.93
2022-11-05T04:30:28.867Z,199.93
2022-11-05T04:31:14.135Z,225.92
2022-11-05T04:31:59.197Z,223.89
2022-11-05T04:32:44.143Z,227.88
2022-11-05T04:33:29.199Z,214.89
2022-11-05T04:34:14.353Z,231.88
2022-11-05T04:34:59.517Z,230.88
2022-11-05T04:35:44.359Z,228.88
2022-11-05T04:36:30.146Z,253.87
2022-11-05T04:37:14.582Z,244.88
2022-11-05T04:37:59.529Z,219.89
2022-11-05T04:38:44.616Z,264.87
2022-11-05T04:39:29.540Z,243.88
2022-11-05T04:40:14.830Z,263.81
2022-11-05T04:40:59.937Z,258.91
2022-11-05T04:41:45.427Z,232.92
2022-11-05T04:42:29.773Z,231.92
2022-11-05T04:43:15.315Z,231.83
2022-11-05T04:44:00.335Z,250.91
2022-11-05T04:44:45.143Z,240.92
2022-11-05T04:45:30.094Z,259.91
2022-11-05T04:46:15.154Z,243.92
2022-11-05T04:47:00.109Z,249.91
2022-11-05T04:47:45.375Z,226.92
2022-11-05T04:48:30.370Z,222.92
2022-11-05T04:49:15.316Z,598.79
2022-11-05T04:50:00.846Z,596.80
2022-11-05T04:50:45.312Z,596.80
2022-11-05T04:51:30.136Z,607.79
2022-11-05T04:52:15.498Z,606.79
2022-11-05T04:53:00.457Z,611.79
2022-11-05T04:53:45.412Z,613.79
2022-11-05T04:54:30.461Z,618.79
2022-11-05T04:55:15.635Z,612.79
2022-11-05T04:56:00.786Z,622.79
2022-11-05T04:56:45.671Z,616.79
2022-11-05T04:57:30.692Z,610.79
2022-11-05T04:58:15.668Z,612.79
2022-11-05T04:59:01.169Z,614.62
2022-11-05T04:59:45.859Z,608.79
2022-11-05T05:00:30.874Z,608.79
2022-11-05T05:01:16.419Z,607.83
2022-11-05T05:02:01.216Z,222.89
2022-11-05T05:02:46.391Z,229.94
2022-11-05T05:03:31.350Z,208.94
2022-11-05T05:04:15.992Z,225.94
2022-11-05T05:05:01.356Z,212.94
2022-11-05T05:05:46.309Z,604.83
2022-11-05T05:06:31.593Z,605.79
2022-11-05T05:07:16.441Z,597.79
2022-11-05T05:08:01.482Z,602.63
2022-11-05T05:08:46.683Z,598.79
2022-11-05T05:09:31.897Z,598.79
2022-11-05T05:10:16.653Z,593.80
2022-11-05T05:11:01.811Z,243.88
2022-11-05T05:11:46.765Z,210.94
2022-11-05T05:12:32.343Z,248.91
2022-11-05T05:13:17.185Z,213.93
2022-11-05T05:14:01.934Z,607.83
2022-11-05T05:14:47.192Z,603.83
2022-11-05T05:15:32.278Z,609.79
2022-11-05T05:16:17.121Z,609.79
2022-11-05T05:17:02.566Z,615.79
2022-11-05T05:17:47.521Z,597.83
2022-11-05T05:18:32.371Z,601.83
2022-11-05T05:19:17.227Z,614.83
2022-11-05T05:20:02.489Z,606.83
2022-11-05T05:20:47.468Z,601.83
2022-11-05T05:21:32.782Z,615.83
2022-11-05T05:22:17.689Z,607.83
2022-11-05T05:23:02.812Z,605.83
2022-11-05T05:23:47.771Z,605.83
2022-11-05T05:24:32.621Z,584.84
2022-11-05T05:25:17.782Z,605.83
2022-11-05T05:26:03.267Z,608.83
2022-11-05T05:26:48.034Z,608.83
2022-11-05T05:27:33.096Z,619.83
2022-11-05T05:28:18.107Z,612.83
2022-11-05T05:29:03.270Z,600.86
2022-11-05T05:29:47.915Z,608.79
2022-11-05T05:30:33.284Z,614.83
2022-11-05T05:31:18.280Z,612.69
2022-11-05T05:32:03.305Z,608.83
2022-11-05T05:32:48.245Z,612.79
2022-11-05T05:33:33.612Z,620.83
2022-11-05T05:34:18.456Z,620.83
2022-11-05T05:35:03.648Z,618.83
2022-11-05T05:35:48.692Z,618.83
2022-11-05T05:36:33.595Z,597.83
2022-11-05T05:37:18.909Z,622.68
2022-11-05T05:38:03.647Z,600.83
2022-11-05T05:38:49.006Z,618.83
2022-11-05T05:39:33.830Z,615.83
2022-11-05T05:40:19.027Z,597.83
2022-11-05T05:41:04.421Z,616.83
2022-11-05T05:41:49.128Z,607.83
2022-11-05T05:42:37.468Z,611.83
2022-11-05T05:43:19.129Z,617.86
2022-11-05T05:44:04.414Z,603.91
2022-11-05T05:44:49.352Z,366.97
2022-11-05T05:45:34.178Z,245.99
2022-11-05T05:46:19.672Z,233.99
2022-11-05T05:47:04.309Z,231.99
2022-11-05T05:47:49.412Z,223.99
2022-11-05T05:48:34.613Z,234.98
2022-11-05T05:49:19.612Z,248.98
2022-11-05T05:50:04.703Z,215.98
2022-11-05T05:50:49.901Z,219.98
2022-11-05T05:51:34.859Z,220.98
2022-11-05T05:52:19.805Z,213.98
2022-11-05T05:53:04.758Z,226.98
2022-11-05T05:53:50.128Z,194.99
2022-11-05T05:54:39.751Z,187.97
2022-11-05T05:55:20.138Z,203.96
2022-11-05T05:56:05.398Z,185.96
2022-11-05T05:56:50.337Z,231.95
2022-11-05T05:57:35.399Z,223.94
2022-11-05T05:58:20.163Z,245.93
2022-11-05T05:59:05.341Z,221.94
2022-11-05T05:59:50.275Z,218.94
2022-11-05T06:00:35.530Z,563.84
2022-11-05T06:01:20.596Z,547.85
2022-11-05T06:02:05.393Z,554.84
2022-11-05T06:02:50.684Z,561.84
2022-11-05T06:03:35.784Z,572.84
2022-11-05T06:04:20.622Z,556.84
2022-11-05T06:05:05.873Z,546.88
2022-11-05T06:05:51.199Z,401.91
2022-11-05T06:06:36.091Z,409.91
2022-11-05T06:07:21.038Z,281.94
2022-11-05T06:08:05.933Z,263.94
2022-11-05T06:08:51.152Z,272.94
2022-11-05T06:09:36.114Z,277.94
2022-11-05T06:10:21.315Z,275.92
2022-11-05T06:11:06.181Z,283.92
2022-11-05T06:11:51.585Z,265.93
2022-11-05T06:12:36.605Z,264.93
2022-11-05T06:13:21.391Z,248.93
2022-11-05T06:14:06.444Z,278.92
2022-11-05T06:14:51.203Z,244.93
2022-11-05T06:15:36.918Z,247.93
2022-11-05T06:16:21.714Z,257.93
2022-11-05T06:17:06.977Z,250.93
2022-11-05T06:17:51.940Z,250.93
2022-11-05T06:18:36.781Z,267.92
2022-11-05T06:19:21.839Z,450.87
2022-11-05T06:20:07.001Z,407.89
2022-11-05T06:20:51.751Z,251.93
2022-11-05T06:21:37.341Z,257.93
2022-11-05T06:22:22.285Z,262.93
2022-11-05T06:23:07.331Z,249.93
2022-11-05T06:23:51.974Z,248.93
2022-11-05T06:24:37.354Z,248.93
2022-11-05T06:25:22.107Z,263.93
2022-11-05T06:26:07.553Z,241.93
2022-11-05T06:26:52.514Z,222.94
2022-11-05T06:27:37.361Z,234.93
2022-11-05T06:28:22.517Z,254.93
2022-11-05T06:29:07.882Z,222.94
2022-11-05T06:29:52.957Z,232.93
2022-11-05T06:30:37.873Z,252.93
2022-11-05T06:31:22.873Z,224.94
2022-11-05T06:32:07.694Z,250.93
2022-11-05T06:32:53.062Z,260.93
2022-11-05T06:33:37.876Z,261.93
2022-11-05T06:34:22.905Z,228.94
2022-11-05T06:35:08.229Z,205.94
2022-11-05T06:35:53.183Z,335.91
2022-11-05T06:36:37.867Z,243.93
2022-11-05T06:37:23.071Z,243.93
2022-11-05T06:38:08.254Z,417.88
2022-11-05T06:38:53.511Z,456.87
2022-11-05T06:39:38.465Z,463.87
2022-11-05T06:40:23.324Z,503.74
2022-11-05T06:41:10.249Z,499.86
2022-11-05T06:42:17.287Z,391.80
2022-11-05T06:42:38.591Z,262.93
2022-11-05T06:43:23.644Z,247.87
2022-11-05T06:44:08.597Z,274.92
2022-11-05T06:44:54.128Z,274.92
2022-11-05T06:45:38.629Z,268.91
2022-11-05T06:46:24.589Z,257.91
2022-11-05T06:47:08.889Z,256.91
2022-11-05T06:47:53.775Z,241.92
2022-11-05T06:48:39.247Z,272.83
2022-11-05T06:49:24.513Z,256.91
2022-11-05T06:50:09.260Z,259.84
2022-11-05T06:50:54.311Z,259.91
2022-11-05T06:51:39.266Z,265.91
2022-11-05T06:52:24.121Z,246.92
2022-11-05T06:53:09.510Z,242.92
2022-11-05T06:53:54.332Z,271.91
2022-11-05T06:54:39.597Z,269.91
2022-11-05T06:55:24.341Z,246.92
2022-11-05T06:56:09.398Z,258.91
2022-11-05T06:56:54.583Z,256.91
2022-11-05T06:57:39.549Z,256.91
2022-11-05T06:58:24.484Z,247.91
2022-11-05T06:59:09.589Z,256.91
2022-11-05T06:59:58.852Z,249.91
2022-11-05T07:00:40.033Z,395.86
2022-11-05T07:01:24.974Z,367.87
2022-11-05T07:02:09.709Z,273.91
2022-11-05T07:02:55.040Z,253.91
2022-11-05T07:03:40.063Z,266.91
2022-11-05T07:04:25.121Z,249.91
2022-11-05T07:05:10.186Z,251.91
2022-11-05T07:05:55.034Z,243.92
2022-11-05T07:06:40.394Z,269.91
2022-11-05T07:07:25.967Z,269.91
2022-11-05T07:08:10.195Z,284.90
2022-11-05T07:08:55.256Z,281.90
2022-11-05T07:09:40.742Z,270.91
2022-11-05T07:10:25.373Z,264.84
2022-11-05T07:11:10.569Z,265.91
2022-11-05T07:11:55.482Z,246.85
2022-11-05T07:12:40.449Z,235.92
2022-11-05T07:13:25.903Z,242.92
2022-11-05T07:14:10.646Z,243.92
2022-11-05T07:14:55.612Z,223.92
2022-11-05T07:15:40.876Z,218.92
2022-11-05T07:16:25.922Z,242.88
2022-11-05T07:17:10.975Z,243.88
2022-11-05T07:17:56.081Z,253.87
2022-11-05T07:18:41.306Z,258.87
2022-11-05T07:19:26.043Z,257.91
2022-11-05T07:20:11.416Z,252.81
2022-11-05T07:20:56.263Z,257.87
2022-11-05T07:21:41.319Z,255.81
2022-11-05T07:22:25.988Z,249.87
2022-11-05T07:23:11.752Z,252.87
2022-11-05T07:23:56.302Z,255.87
2022-11-05T07:24:41.653Z,262.81
2022-11-05T07:25:26.395Z,247.87
2022-11-05T07:26:11.767Z,247.87
2022-11-05T07:26:56.707Z,254.87
2022-11-05T07:27:41.868Z,240.88
2022-11-05T07:28:26.928Z,249.87
2022-11-05T07:29:11.980Z,263.81
2022-11-05T07:29:56.832Z,242.88
2022-11-05T07:30:42.202Z,242.88
2022-11-05T07:31:26.950Z,242.88
2022-11-05T07:32:11.850Z,257.87
2022-11-05T07:32:57.062Z,247.87
2022-11-05T07:33:42.238Z,247.87
2022-11-05T07:34:27.995Z,255.87
2022-11-05T07:35:12.536Z,257.87
2022-11-05T07:35:57.598Z,260.87
2022-11-05T07:36:42.545Z,256.87
2022-11-05T07:37:27.524Z,268.86
2022-11-05T07:38:12.772Z,265.87
2022-11-05T07:39:00.293Z,261.87
2022-11-05T07:39:42.772Z,257.87
2022-11-05T07:40:27.702Z,229.88
2022-11-05T07:41:12.577Z,248.87
2022-11-05T07:41:58.353Z,242.88
2022-11-05T07:42:43.101Z,254.87
2022-11-05T07:43:27.953Z,254.87
2022-11-05T07:44:13.012Z,250.87
2022-11-05T07:44:58.473Z,256.81
2022-11-05T07:45:43.226Z,247.87
2022-11-05T07:46:28.219Z,258.81
2022-11-05T07:47:12.936Z,249.87
2022-11-05T07:47:58.097Z,263.87
2022-11-05T07:48:43.142Z,234.88
2022-11-05T07:49:28.343Z,245.88
2022-11-05T07:50:13.364Z,246.87
2022-11-05T07:50:58.624Z,242.88
2022-11-05T07:51:43.387Z,252.87
2022-11-05T07:52:28.728Z,256.87
2022-11-05T07:53:13.782Z,237.88
2022-11-05T07:53:58.895Z,229.88
2022-11-05T07:54:44.210Z,235.88
2022-11-05T07:55:28.864Z,248.87
2022-11-05T07:56:13.910Z,241.88
2022-11-05T07:56:58.865Z,233.88
2022-11-05T07:57:43.919Z,251.87
2022-11-05T07:58:29.186Z,250.87
2022-11-05T07:59:13.935Z,246.87
2022-11-05T07:59:59.006Z,247.87
2022-11-05T08:00:44.228Z,256.87
2022-11-05T08:01:29.166Z,249.87
2022-11-05T08:02:14.349Z,258.87
2022-11-05T08:03:02.326Z,242.88
2022-11-05T08:03:44.126Z,247.87
2022-11-05T08:04:29.126Z,233.88
2022-11-05T08:05:14.281Z,238.88
2022-11-05T08:05:59.130Z,229.88
2022-11-05T08:06:44.197Z,250.87
2022-11-05T08:07:29.619Z,256.81
2022-11-05T08:08:14.730Z,268.86
2022-11-05T08:08:59.566Z,232.88
2022-11-05T08:09:44.516Z,256.87
2022-11-05T08:10:29.675Z,253.87
2022-11-05T08:11:14.938Z,257.87
2022-11-05T08:12:02.866Z,233.88
2022-11-05T08:12:45.360Z,244.88
2022-11-05T08:13:30.113Z,246.87
2022-11-05T08:14:15.269Z,229.88
2022-11-05T08:15:00.127Z,251.87
2022-11-05T08:15:45.073Z,237.88
2022-11-05T08:16:30.334Z,232.88
2022-11-05T08:17:18.432Z,223.89
2022-11-05T08:18:00.344Z,223.89
2022-11-05T08:18:45.330Z,228.83
2022-11-05T08:19:30.353Z,218.89
2022-11-05T08:20:15.512Z,216.89
2022-11-05T08:21:00.670Z,226.88
2022-11-05T08:21:45.628Z,230.88
2022-11-05T08:22:30.534Z,233.88
2022-11-05T08:23:15.919Z,233.88
2022-11-05T08:24:00.587Z,231.88
2022-11-05T08:24:45.853Z,231.88
2022-11-05T08:25:30.704Z,230.88
2022-11-05T08:26:15.969Z,230.88
2022-11-05T08:27:01.119Z,255.87
2022-11-05T08:27:45.972Z,255.87
2022-11-05T08:28:31.029Z,252.87
2022-11-05T08:29:15.726Z,264.80
2022-11-05T08:30:01.146Z,262.87
2022-11-05T08:30:46.072Z,237.82
2022-11-05T08:31:31.187Z,243.88
2022-11-05T08:32:16.112Z,243.78
2022-11-05T08:33:01.471Z,230.88
2022-11-05T08:33:46.226Z,225.89
2022-11-05T08:34:31.383Z,222.89
2022-11-05T08:35:16.335Z,228.88
2022-11-05T08:36:01.394Z,235.88
2022-11-05T08:36:46.654Z,232.88
2022-11-05T08:37:31.703Z,224.89
2022-11-05T08:38:16.662Z,224.89
2022-11-05T08:39:01.621Z,243.88
2022-11-05T08:39:46.875Z,234.83
2022-11-05T08:40:31.837Z,228.88
2022-11-05T08:41:16.789Z,224.89
2022-11-05T08:42:01.739Z,225.89
2022-11-05T08:42:47.105Z,227.88
2022-11-05T08:43:32.107Z,237.88
2022-11-05T08:44:17.008Z,223.89
2022-11-05T08:45:02.036Z,215.89
2022-11-05T08:45:47.251Z,248.87
2022-11-05T08:46:32.096Z,223.89
2022-11-05T08:47:17.236Z,242.88
2022-11-05T08:48:02.598Z,249.87
2022-11-05T08:48:47.343Z,235.88
2022-11-05T08:49:32.407Z,254.87
2022-11-05T08:50:17.693Z,245.88
2022-11-05T08:51:02.621Z,214.89
2022-11-05T08:51:53.612Z,247.87
2022-11-05T08:52:32.532Z,231.83
2022-11-05T08:53:17.862Z,232.88
2022-11-05T08:54:02.744Z,229.88
2022-11-05T08:54:47.802Z,216.89
2022-11-05T08:55:32.754Z,228.88
2022-11-05T08:56:17.545Z,214.89
2022-11-05T08:57:03.074Z,215.89
2022-11-05T08:57:48.130Z,235.88
2022-11-05T08:58:32.979Z,227.88
2022-11-05T08:59:18.034Z,212.89
2022-11-05T09:00:03.309Z,211.89
2022-11-05T09:00:48.464Z,234.88
2022-11-05T09:01:33.370Z,235.88
2022-11-05T09:02:18.222Z,235.88
2022-11-05T09:03:03.115Z,220.89
2022-11-05T09:03:48.273Z,239.82
2022-11-05T09:04:33.344Z,228.88
2022-11-05T09:05:18.184Z,228.88
2022-11-05T09:06:03.235Z,242.88
2022-11-05T09:06:48.707Z,229.83
2022-11-05T09:07:33.554Z,239.88
2022-11-05T09:08:18.510Z,256.87
2022-11-05T09:09:03.671Z,238.88
2022-11-05T09:09:48.623Z,237.82
2022-11-05T09:10:33.784Z,240.88
2022-11-05T09:11:18.733Z,226.88
2022-11-05T09:12:12.344Z,224.89
2022-11-05T09:12:48.762Z,224.89
2022-11-05T09:13:33.801Z,238.88
2022-11-05T09:14:19.065Z,257.87
2022-11-05T09:15:04.020Z,244.88
2022-11-05T09:15:49.076Z,259.87
2022-11-05T09:16:34.029Z,229.88
2022-11-05T09:17:19.390Z,229.88
2022-11-05T09:18:04.142Z,228.88
2022-11-05T09:18:49.194Z,222.89
2022-11-05T09:19:39.411Z,230.88
2022-11-05T09:20:19.823Z,232.88
2022-11-05T09:21:04.675Z,211.89
2022-11-05T09:21:49.631Z,237.88
2022-11-05T09:22:37.864Z,237.88
2022-11-05T09:23:19.427Z,214.89